Kissimmee Gateway Airport
KISM : now visible

Airfield :











YOU CAN JOIN US ON...

 
LOGIN :

Register | Disclaimer

   EN    FR    IT 

 









Legend :    VFR   Marginal VFR   IFR   Intensive IFR   Very Intensive IFR
Visi :
Ceiling :
>= 8 km
>= 3000ft
5 to 8 km
1000 to 3000 ft
1500m to 5 km
500 to 1000 ft
800 to 1500m
200 to 500 ft
< 800m
< 200 ft
Symbols :   Thunderstorms  Fog  Heavy snow  Heavy precipitations  Wind > 20 kt






- Airport Elevation : 82 ft


KISM - Kissimmee Gateway

CURRENT METAR :
  • 280756Z AUTO 09006KT 10SM CLR 24/24 A3006 RMK AO2 SLP177 T02440244 PNO $

EXPIRED METARs :
  • 280656Z AUTO 09004KT 10SM CLR 24/24 A3007 RMK AO2 SLP181 T02440239 PNO $
  • 280556Z AUTO 08005KT 10SM CLR 24/24 A3008 RMK AO2 SLP186 6//// T02440244 10267 20244 58009 PNO $

TAF KISM
Valid from the 28 at 06:00 until the 29 at 06:00 UTC


280521Z 2806/2906 09003KT P6SM FEW040 FEW250
FM281500 12010KT P6SM SCT020 SCT060
FM290000 13005KT P6SM FEW030
KZMA FIR / North America



MET'MAP, your aeronautical weather chart ! - Copyright ORBIFLY December 2007 - Disclaimer

ORBIFLY MET'MAP TEAM :

Programming & Development : Alexandra Zaïnal
Concept & original design : Baudouin d'Aumeries
Assistance for programming : Marc-Olivier Méhu
Technical & hardware support : Manuel Goepfert

Contact : metmap@orbifly.com




SOURCES & CREDITS :

   NOAA       Earth
Advisory